sensor_id;sensor_type;location;lat;lon;timestamp;temperature;humidity
1878;DHT22;939;51.426;6.972;2023-11-21T00:02:20;9.30;99.90
1878;DHT22;939;51.426;6.972;2023-11-21T00:04:47;9.30;99.90
1878;DHT22;939;51.426;6.972;2023-11-21T00:07:14;9.40;99.90
1878;DHT22;939;51.426;6.972;2023-11-21T00:09:41;9.30;99.90
1878;DHT22;939;51.426;6.972;2023-11-21T00:12:09;9.40;99.90
1878;DHT22;939;51.426;6.972;2023-11-21T00:14:36;9.40;99.90
1878;DHT22;939;51.426;6.972;2023-11-21T00:17:03;9.50;99.90
1878;DHT22;939;51.426;6.972;2023-11-21T00:19:30;9.50;99.90
1878;DHT22;939;51.426;6.972;2023-11-21T00:21:57;9.50;99.90
1878;DHT22;939;51.426;6.972;2023-11-21T00:24:24;9.50;99.90
1878;DHT22;939;51.426;6.972;2023-11-21T00:26:51;9.60;99.90
1878;DHT22;939;51.426;6.972;2023-11-21T00:29:19;9.60;99.90
1878;DHT22;939;51.426;6.972;2023-11-21T00:31:46;9.60;99.90
1878;DHT22;939;51.426;6.972;2023-11-21T00:34:13;9.70;99.90
1878;DHT22;939;51.426;6.972;2023-11-21T00:36:40;9.60;99.90
1878;DHT22;939;51.426;6.972;2023-11-21T00:39:07;9.60;99.90
1878;DHT22;939;51.426;6.972;2023-11-21T00:41:34;9.50;99.90
1878;DHT22;939;51.426;6.972;2023-11-21T00:44:02;9.50;99.90
1878;DHT22;939;51.426;6.972;2023-11-21T00:46:31;9.50;99.90
1878;DHT22;939;51.426;6.972;2023-11-21T00:48:58;9.60;99.90
1878;DHT22;939;51.426;6.972;2023-11-21T00:51:25;9.60;99.90
1878;DHT22;939;51.426;6.972;2023-11-21T00:53:51;9.60;99.90
1878;DHT22;939;51.426;6.972;2023-11-21T00:56:18;9.60;99.90
1878;DHT22;939;51.426;6.972;2023-11-21T00:58:45;9.60;99.90
1878;DHT22;939;51.426;6.972;2023-11-21T01:01:15;9.60;99.90
1878;DHT22;939;51.426;6.972;2023-11-21T01:03:43;9.30;99.90
1878;DHT22;939;51.426;6.972;2023-11-21T01:06:12;9.30;99.90
1878;DHT22;939;51.426;6.972;2023-11-21T01:08:39;9.50;99.90
1878;DHT22;939;51.426;6.972;2023-11-21T01:11:05;9.50;99.90
1878;DHT22;939;51.426;6.972;2023-11-21T01:13:33;9.40;99.90
1878;DHT22;939;51.426;6.972;2023-11-21T01:16:01;9.30;99.90
1878;DHT22;939;51.426;6.972;2023-11-21T01:18:29;9.40;99.90
1878;DHT22;939;51.426;6.972;2023-11-21T01:20:57;9.50;99.90
1878;DHT22;939;51.426;6.972;2023-11-21T01:23:25;9.60;99.90
1878;DHT22;939;51.426;6.972;2023-11-21T01:25:52;9.60;99.90
1878;DHT22;939;51.426;6.972;2023-11-21T01:28:19;9.60;99.90
1878;DHT22;939;51.426;6.972;2023-11-21T01:30:46;9.60;99.90
1878;DHT22;939;51.426;6.972;2023-11-21T01:33:15;9.60;99.90
1878;DHT22;939;51.426;6.972;2023-11-21T01:35:42;9.40;99.90
1878;DHT22;939;51.426;6.972;2023-11-21T01:38:10;9.50;99.90
1878;DHT22;939;51.426;6.972;2023-11-21T01:40:37;9.60;99.90
1878;DHT22;939;51.426;6.972;2023-11-21T01:43:04;9.60;99.90
1878;DHT22;939;51.426;6.972;2023-11-21T01:45:31;9.60;99.90
1878;DHT22;939;51.426;6.972;2023-11-21T01:47:59;9.70;99.90
1878;DHT22;939;51.426;6.972;2023-11-21T01:50:27;9.80;99.90
1878;DHT22;939;51.426;6.972;2023-11-21T01:52:55;9.80;99.90
1878;DHT22;939;51.426;6.972;2023-11-21T01:55:23;9.80;99.90
1878;DHT22;939;51.426;6.972;2023-11-21T01:57:50;9.70;99.90
1878;DHT22;939;51.426;6.972;2023-11-21T02:00:17;9.70;99.90
1878;DHT22;939;51.426;6.972;2023-11-21T02:02:45;9.70;99.90
1878;DHT22;939;51.426;6.972;2023-11-21T02:05:13;9.80;99.90
1878;DHT22;939;51.426;6.972;2023-11-21T02:07:42;9.80;99.90
1878;DHT22;939;51.426;6.972;2023-11-21T02:10:09;9.90;99.90
1878;DHT22;939;51.426;6.972;2023-11-21T02:12:42;9.90;99.90
1878;DHT22;939;51.426;6.972;2023-11-21T02:15:11;9.90;99.90
1878;DHT22;939;51.426;6.972;2023-11-21T02:17:45;10.00;99.90
1878;DHT22;939;51.426;6.972;2023-11-21T02:20:13;10.10;99.90
1878;DHT22;939;51.426;6.972;2023-11-21T02:22:41;10.10;99.90
1878;DHT22;939;51.426;6.972;2023-11-21T02:25:10;10.10;99.90
1878;DHT22;939;51.426;6.972;2023-11-21T02:27:37;10.10;99.90
1878;DHT22;939;51.426;6.972;2023-11-21T02:30:04;10.10;99.90
1878;DHT22;939;51.426;6.972;2023-11-21T02:32:33;10.10;99.90
1878;DHT22;939;51.426;6.972;2023-11-21T02:35:00;10.10;99.90
1878;DHT22;939;51.426;6.972;2023-11-21T02:37:28;10.10;99.90
1878;DHT22;939;51.426;6.972;2023-11-21T02:39:54;10.20;99.90
1878;DHT22;939;51.426;6.972;2023-11-21T02:42:23;10.20;99.90
1878;DHT22;939;51.426;6.972;2023-11-21T02:44:49;10.20;99.90
1878;DHT22;939;51.426;6.972;2023-11-21T02:47:16;10.20;99.90
1878;DHT22;939;51.426;6.972;2023-11-21T02:49:43;10.10;99.90
1878;DHT22;939;51.426;6.972;2023-11-21T02:52:10;9.90;99.90
1878;DHT22;939;51.426;6.972;2023-11-21T02:54:37;9.70;99.90
1878;DHT22;939;51.426;6.972;2023-11-21T02:57:04;9.70;99.90
1878;DHT22;939;51.426;6.972;2023-11-21T02:59:32;9.90;99.90
1878;DHT22;939;51.426;6.972;2023-11-21T03:02:00;9.90;99.90
1878;DHT22;939;51.426;6.972;2023-11-21T03:04:27;10.00;99.90
1878;DHT22;939;51.426;6.972;2023-11-21T03:06:54;9.90;99.90
1878;DHT22;939;51.426;6.972;2023-11-21T03:09:20;9.90;99.90
1878;DHT22;939;51.426;6.972;2023-11-21T03:11:47;10.00;99.90
1878;DHT22;939;51.426;6.972;2023-11-21T03:14:14;10.00;99.90
1878;DHT22;939;51.426;6.972;2023-11-21T03:16:42;10.00;99.90
1878;DHT22;939;51.426;6.972;2023-11-21T03:19:10;9.90;99.90
1878;DHT22;939;51.426;6.972;2023-11-21T03:21:37;10.00;99.90
1878;DHT22;939;51.426;6.972;2023-11-21T03:24:05;10.10;99.90
1878;DHT22;939;51.426;6.972;2023-11-21T03:26:32;10.20;99.90
1878;DHT22;939;51.426;6.972;2023-11-21T03:28:59;10.20;99.90
1878;DHT22;939;51.426;6.972;2023-11-21T03:31:26;10.10;99.90
1878;DHT22;939;51.426;6.972;2023-11-21T03:33:54;10.10;99.90
1878;DHT22;939;51.426;6.972;2023-11-21T03:36:21;10.20;99.90
1878;DHT22;939;51.426;6.972;2023-11-21T03:38:50;10.20;99.90
1878;DHT22;939;51.426;6.972;2023-11-21T03:41:17;10.20;99.90
1878;DHT22;939;51.426;6.972;2023-11-21T03:43:44;10.20;99.90
1878;DHT22;939;51.426;6.972;2023-11-21T03:46:11;10.20;99.90
1878;DHT22;939;51.426;6.972;2023-11-21T03:48:38;10.20;99.90
1878;DHT22;939;51.426;6.972;2023-11-21T03:51:06;10.20;99.90
1878;DHT22;939;51.426;6.972;2023-11-21T03:53:33;10.20;99.90
1878;DHT22;939;51.426;6.972;2023-11-21T03:56:02;9.90;99.90
1878;DHT22;939;51.426;6.972;2023-11-21T03:58:29;9.70;99.90
1878;DHT22;939;51.426;6.972;2023-11-21T04:00:56;9.80;99.90
1878;DHT22;939;51.426;6.972;2023-11-21T04:03:23;9.70;99.90
1878;DHT22;939;51.426;6.972;2023-11-21T04:05:49;9.70;99.90
1878;DHT22;939;51.426;6.972;2023-11-21T04:08:17;9.80;99.90
1878;DHT22;939;51.426;6.972;2023-11-21T04:10:44;9.80;99.90
1878;DHT22;939;51.426;6.972;2023-11-21T04:13:11;9.80;99.90
1878;DHT22;939;51.426;6.972;2023-11-21T04:15:38;9.80;99.90
1878;DHT22;939;51.426;6.972;2023-11-21T04:18:05;9.90;99.90
1878;DHT22;939;51.426;6.972;2023-11-21T04:20:32;10.00;99.90
1878;DHT22;939;51.426;6.972;2023-11-21T04:22:59;10.00;99.90
1878;DHT22;939;51.426;6.972;2023-11-21T04:25:27;10.00;99.90
1878;DHT22;939;51.426;6.972;2023-11-21T04:27:54;10.10;99.90
1878;DHT22;939;51.426;6.972;2023-11-21T04:30:21;10.10;99.90
1878;DHT22;939;51.426;6.972;2023-11-21T04:32:47;10.00;99.90
1878;DHT22;939;51.426;6.972;2023-11-21T04:35:14;9.90;99.90
1878;DHT22;939;51.426;6.972;2023-11-21T04:37:41;9.90;99.90
1878;DHT22;939;51.426;6.972;2023-11-21T04:40:09;9.90;99.90
1878;DHT22;939;51.426;6.972;2023-11-21T04:42:37;9.90;99.90
1878;DHT22;939;51.426;6.972;2023-11-21T04:45:05;10.00;99.90
1878;DHT22;939;51.426;6.972;2023-11-21T04:47:35;10.00;99.90
1878;DHT22;939;51.426;6.972;2023-11-21T04:50:02;10.00;99.90
1878;DHT22;939;51.426;6.972;2023-11-21T04:52:29;9.90;99.90
1878;DHT22;939;51.426;6.972;2023-11-21T04:54:56;9.90;99.90
1878;DHT22;939;51.426;6.972;2023-11-21T04:57:24;9.90;99.90
1878;DHT22;939;51.426;6.972;2023-11-21T04:59:52;10.00;99.90
1878;DHT22;939;51.426;6.972;2023-11-21T05:02:19;10.00;99.90
1878;DHT22;939;51.426;6.972;2023-11-21T05:04:47;10.10;99.90
1878;DHT22;939;51.426;6.972;2023-11-21T05:07:14;10.10;99.90
1878;DHT22;939;51.426;6.972;2023-11-21T05:09:42;10.00;99.90
1878;DHT22;939;51.426;6.972;2023-11-21T05:12:11;10.00;99.90
1878;DHT22;939;51.426;6.972;2023-11-21T05:14:38;10.10;99.90
1878;DHT22;939;51.426;6.972;2023-11-21T05:17:06;10.10;99.90
1878;DHT22;939;51.426;6.972;2023-11-21T05:19:34;10.10;99.90
1878;DHT22;939;51.426;6.972;2023-11-21T05:22:02;10.10;99.90
1878;DHT22;939;51.426;6.972;2023-11-21T05:24:28;10.10;99.90
1878;DHT22;939;51.426;6.972;2023-11-21T05:26:55;10.10;99.90
1878;DHT22;939;51.426;6.972;2023-11-21T05:29:23;10.10;99.90
1878;DHT22;939;51.426;6.972;2023-11-21T05:31:51;10.00;99.90
1878;DHT22;939;51.426;6.972;2023-11-21T05:34:19;9.90;99.90
1878;DHT22;939;51.426;6.972;2023-11-21T05:36:49;10.00;99.90
1878;DHT22;939;51.426;6.972;2023-11-21T05:39:16;10.00;99.90
1878;DHT22;939;51.426;6.972;2023-11-21T05:41:44;10.10;99.90
1878;DHT22;939;51.426;6.972;2023-11-21T05:44:11;10.10;99.90
1878;DHT22;939;51.426;6.972;2023-11-21T05:46:40;10.10;99.90
1878;DHT22;939;51.426;6.972;2023-11-21T05:49:08;10.10;99.90
1878;DHT22;939;51.426;6.972;2023-11-21T05:51:36;10.10;99.90
1878;DHT22;939;51.426;6.972;2023-11-21T05:54:04;10.20;99.90
1878;DHT22;939;51.426;6.972;2023-11-21T05:56:31;10.10;99.90
1878;DHT22;939;51.426;6.972;2023-11-21T05:58:58;10.10;99.90
1878;DHT22;939;51.426;6.972;2023-11-21T06:01:25;10.10;99.90
1878;DHT22;939;51.426;6.972;2023-11-21T06:03:53;10.10;99.90
1878;DHT22;939;51.426;6.972;2023-11-21T06:06:21;10.10;99.90
1878;DHT22;939;51.426;6.972;2023-11-21T06:08:51;10.00;99.90
1878;DHT22;939;51.426;6.972;2023-11-21T06:11:18;10.00;99.90
1878;DHT22;939;51.426;6.972;2023-11-21T06:13:45;9.90;99.90
1878;DHT22;939;51.426;6.972;2023-11-21T06:16:13;10.00;99.90
1878;DHT22;939;51.426;6.972;2023-11-21T06:18:42;10.00;99.90
1878;DHT22;939;51.426;6.972;2023-11-21T06:21:10;10.00;99.90
1878;DHT22;939;51.426;6.972;2023-11-21T06:23:37;10.00;99.90
1878;DHT22;939;51.426;6.972;2023-11-21T06:26:06;10.00;99.90
1878;DHT22;939;51.426;6.972;2023-11-21T06:28:34;10.00;99.90
1878;DHT22;939;51.426;6.972;2023-11-21T06:31:03;10.00;99.90
1878;DHT22;939;51.426;6.972;2023-11-21T06:33:30;10.00;99.90
1878;DHT22;939;51.426;6.972;2023-11-21T06:35:57;10.00;99.90
1878;DHT22;939;51.426;6.972;2023-11-21T06:38:24;10.10;99.90
1878;DHT22;939;51.426;6.972;2023-11-21T06:40:53;10.20;99.90
1878;DHT22;939;51.426;6.972;2023-11-21T06:43:22;10.20;99.90
1878;DHT22;939;51.426;6.972;2023-11-21T06:45:49;10.20;99.90
1878;DHT22;939;51.426;6.972;2023-11-21T06:48:16;10.20;99.90
1878;DHT22;939;51.426;6.972;2023-11-21T06:50:43;10.20;99.90
1878;DHT22;939;51.426;6.972;2023-11-21T06:53:09;10.30;99.90
1878;DHT22;939;51.426;6.972;2023-11-21T06:55:36;10.30;99.90
1878;DHT22;939;51.426;6.972;2023-11-21T06:58:03;10.40;99.90
1878;DHT22;939;51.426;6.972;2023-11-21T07:00:32;10.40;99.90
1878;DHT22;939;51.426;6.972;2023-11-21T07:02:59;10.40;99.90
1878;DHT22;939;51.426;6.972;2023-11-21T07:05:25;10.40;99.90
1878;DHT22;939;51.426;6.972;2023-11-21T07:07:52;10.30;99.90
1878;DHT22;939;51.426;6.972;2023-11-21T07:10:19;10.30;99.90
1878;DHT22;939;51.426;6.972;2023-11-21T07:12:46;10.40;99.90
1878;DHT22;939;51.426;6.972;2023-11-21T07:15:13;10.40;99.90
1878;DHT22;939;51.426;6.972;2023-11-21T07:17:41;10.40;99.90
1878;DHT22;939;51.426;6.972;2023-11-21T07:20:10;10.50;99.90
1878;DHT22;939;51.426;6.972;2023-11-21T07:22:37;10.50;99.90
1878;DHT22;939;51.426;6.972;2023-11-21T07:25:05;10.50;99.90
1878;DHT22;939;51.426;6.972;2023-11-21T07:27:32;10.50;99.90
1878;DHT22;939;51.426;6.972;2023-11-21T07:30:01;10.50;99.90
1878;DHT22;939;51.426;6.972;2023-11-21T07:32:30;10.60;99.90
1878;DHT22;939;51.426;6.972;2023-11-21T07:34:58;10.60;99.90
1878;DHT22;939;51.426;6.972;2023-11-21T07:37:27;10.60;99.90
1878;DHT22;939;51.426;6.972;2023-11-21T07:39:54;10.60;99.90
1878;DHT22;939;51.426;6.972;2023-11-21T07:42:22;10.60;99.90
1878;DHT22;939;51.426;6.972;2023-11-21T07:44:49;10.50;99.90
1878;DHT22;939;51.426;6.972;2023-11-21T07:47:17;10.60;99.90
1878;DHT22;939;51.426;6.972;2023-11-21T07:49:44;10.50;99.90
1878;DHT22;939;51.426;6.972;2023-11-21T07:52:13;10.50;99.90
1878;DHT22;939;51.426;6.972;2023-11-21T07:54:41;10.60;99.90
1878;DHT22;939;51.426;6.972;2023-11-21T07:57:08;10.50;99.90
1878;DHT22;939;51.426;6.972;2023-11-21T07:59:38;10.50;99.90
1878;DHT22;939;51.426;6.972;2023-11-21T08:02:06;10.60;99.90
1878;DHT22;939;51.426;6.972;2023-11-21T08:04:33;10.60;99.90
1878;DHT22;939;51.426;6.972;2023-11-21T08:07:01;10.60;99.90
1878;DHT22;939;51.426;6.972;2023-11-21T08:09:31;10.60;99.90
1878;DHT22;939;51.426;6.972;2023-11-21T08:12:00;10.50;99.90
1878;DHT22;939;51.426;6.972;2023-11-21T08:14:28;10.50;99.90
1878;DHT22;939;51.426;6.972;2023-11-21T08:16:55;10.60;99.90
1878;DHT22;939;51.426;6.972;2023-11-21T08:19:23;10.60;99.90
1878;DHT22;939;51.426;6.972;2023-11-21T08:21:50;10.60;99.90
1878;DHT22;939;51.426;6.972;2023-11-21T08:24:20;10.50;99.90
1878;DHT22;939;51.426;6.972;2023-11-21T08:26:48;10.30;99.90
1878;DHT22;939;51.426;6.972;2023-11-21T08:29:15;10.30;99.90
1878;DHT22;939;51.426;6.972;2023-11-21T08:31:42;10.30;99.90
1878;DHT22;939;51.426;6.972;2023-11-21T08:34:36;10.50;99.90
1878;DHT22;939;51.426;6.972;2023-11-21T08:37:07;10.60;99.90
1878;DHT22;939;51.426;6.972;2023-11-21T08:39:34;10.60;99.90
1878;DHT22;939;51.426;6.972;2023-11-21T08:42:05;10.70;99.90
1878;DHT22;939;51.426;6.972;2023-11-21T08:44:34;10.70;99.90
1878;DHT22;939;51.426;6.972;2023-11-21T08:47:01;10.60;99.90
1878;DHT22;939;51.426;6.972;2023-11-21T08:49:29;10.60;99.90
1878;DHT22;939;51.426;6.972;2023-11-21T08:51:58;10.70;99.90
1878;DHT22;939;51.426;6.972;2023-11-21T08:54:25;10.70;99.90
1878;DHT22;939;51.426;6.972;2023-11-21T08:56:52;10.50;99.90
1878;DHT22;939;51.426;6.972;2023-11-21T08:59:24;10.60;99.90
1878;DHT22;939;51.426;6.972;2023-11-21T09:01:51;10.70;99.90
1878;DHT22;939;51.426;6.972;2023-11-21T09:04:20;10.60;99.90
1878;DHT22;939;51.426;6.972;2023-11-21T09:06:47;10.60;99.90
1878;DHT22;939;51.426;6.972;2023-11-21T09:09:13;10.60;99.90
1878;DHT22;939;51.426;6.972;2023-11-21T09:11:42;10.70;99.90
1878;DHT22;939;51.426;6.972;2023-11-21T09:14:11;10.80;99.90
1878;DHT22;939;51.426;6.972;2023-11-21T09:16:49;10.90;99.90
1878;DHT22;939;51.426;6.972;2023-11-21T09:19:16;11.00;99.90
1878;DHT22;939;51.426;6.972;2023-11-21T09:21:48;11.00;99.90
1878;DHT22;939;51.426;6.972;2023-11-21T09:24:16;11.00;99.90
1878;DHT22;939;51.426;6.972;2023-11-21T09:26:42;11.10;99.90
1878;DHT22;939;51.426;6.972;2023-11-21T09:29:11;11.20;99.90
1878;DHT22;939;51.426;6.972;2023-11-21T09:31:47;11.20;99.90
1878;DHT22;939;51.426;6.972;2023-11-21T09:34:15;11.10;99.90
1878;DHT22;939;51.426;6.972;2023-11-21T09:36:44;11.10;99.90
1878;DHT22;939;51.426;6.972;2023-11-21T09:39:11;11.20;99.90
1878;DHT22;939;51.426;6.972;2023-11-21T09:41:48;11.30;99.90
1878;DHT22;939;51.426;6.972;2023-11-21T09:44:18;11.30;99.90
1878;DHT22;939;51.426;6.972;2023-11-21T09:46:52;11.30;99.90
1878;DHT22;939;51.426;6.972;2023-11-21T09:49:23;11.30;99.90
1878;DHT22;939;51.426;6.972;2023-11-21T09:51:54;11.40;99.90
1878;DHT22;939;51.426;6.972;2023-11-21T09:54:21;11.40;99.90
1878;DHT22;939;51.426;6.972;2023-11-21T09:56:49;11.40;99.90
1878;DHT22;939;51.426;6.972;2023-11-21T09:59:16;11.40;99.90
1878;DHT22;939;51.426;6.972;2023-11-21T10:01:44;11.50;99.90
1878;DHT22;939;51.426;6.972;2023-11-21T10:04:13;11.50;99.90
1878;DHT22;939;51.426;6.972;2023-11-21T10:06:42;11.50;99.90
1878;DHT22;939;51.426;6.972;2023-11-21T10:09:12;11.50;99.90
1878;DHT22;939;51.426;6.972;2023-11-21T10:11:43;11.50;99.90
1878;DHT22;939;51.426;6.972;2023-11-21T10:14:14;11.50;99.90
1878;DHT22;939;51.426;6.972;2023-11-21T10:16:44;11.50;99.90
1878;DHT22;939;51.426;6.972;2023-11-21T10:19:14;11.50;99.90
1878;DHT22;939;51.426;6.972;2023-11-21T10:21:41;11.60;99.90
1878;DHT22;939;51.426;6.972;2023-11-21T10:24:09;11.60;99.90
1878;DHT22;939;51.426;6.972;2023-11-21T10:26:38;11.70;99.90
1878;DHT22;939;51.426;6.972;2023-11-21T10:29:05;11.70;99.90
1878;DHT22;939;51.426;6.972;2023-11-21T10:31:32;11.80;99.90
1878;DHT22;939;51.426;6.972;2023-11-21T10:34:14;11.60;99.90
1878;DHT22;939;51.426;6.972;2023-11-21T10:36:41;11.70;99.90
1878;DHT22;939;51.426;6.972;2023-11-21T10:39:08;11.80;99.90
1878;DHT22;939;51.426;6.972;2023-11-21T10:41:36;11.80;99.90
1878;DHT22;939;51.426;6.972;2023-11-21T10:44:08;11.80;99.90
1878;DHT22;939;51.426;6.972;2023-11-21T10:46:36;11.80;99.90
1878;DHT22;939;51.426;6.972;2023-11-21T10:49:06;11.90;99.90
1878;DHT22;939;51.426;6.972;2023-11-21T10:51:34;12.00;99.90
1878;DHT22;939;51.426;6.972;2023-11-21T10:54:01;12.00;99.90
1878;DHT22;939;51.426;6.972;2023-11-21T10:56:28;12.00;99.90
1878;DHT22;939;51.426;6.972;2023-11-21T10:58:56;12.00;99.90
1878;DHT22;939;51.426;6.972;2023-11-21T11:01:25;12.00;99.90
1878;DHT22;939;51.426;6.972;2023-11-21T11:03:55;11.90;99.90
1878;DHT22;939;51.426;6.972;2023-11-21T11:06:24;11.90;99.90
1878;DHT22;939;51.426;6.972;2023-11-21T11:08:54;11.90;99.90
1878;DHT22;939;51.426;6.972;2023-11-21T11:11:22;12.00;99.90
1878;DHT22;939;51.426;6.972;2023-11-21T11:13:49;12.10;99.90
1878;DHT22;939;51.426;6.972;2023-11-21T11:16:16;12.20;99.90
1878;DHT22;939;51.426;6.972;2023-11-21T11:18:43;12.20;99.90
1878;DHT22;939;51.426;6.972;2023-11-21T11:21:20;12.30;99.90
1878;DHT22;939;51.426;6.972;2023-11-21T11:24:11;12.30;99.90
1878;DHT22;939;51.426;6.972;2023-11-21T11:26:47;12.30;99.90
1878;DHT22;939;51.426;6.972;2023-11-21T11:29:23;12.20;99.90
1878;DHT22;939;51.426;6.972;2023-11-21T11:32:03;12.20;99.90
1878;DHT22;939;51.426;6.972;2023-11-21T11:34:41;12.30;99.90
1878;DHT22;939;51.426;6.972;2023-11-21T11:37:11;12.30;99.90
1878;DHT22;939;51.426;6.972;2023-11-21T11:39:42;12.40;99.90
1878;DHT22;939;51.426;6.972;2023-11-21T11:42:12;12.40;99.90
1878;DHT22;939;51.426;6.972;2023-11-21T11:44:47;12.40;99.90
1878;DHT22;939;51.426;6.972;2023-11-21T11:47:18;12.40;99.90
1878;DHT22;939;51.426;6.972;2023-11-21T11:49:57;12.40;99.90
1878;DHT22;939;51.426;6.972;2023-11-21T11:52:33;12.50;99.90
1878;DHT22;939;51.426;6.972;2023-11-21T11:55:02;12.30;99.90
1878;DHT22;939;51.426;6.972;2023-11-21T11:57:30;12.20;99.90
1878;DHT22;939;51.426;6.972;2023-11-21T12:00:14;12.10;99.90
1878;DHT22;939;51.426;6.972;2023-11-21T12:02:51;11.90;99.90
1878;DHT22;939;51.426;6.972;2023-11-21T12:05:19;12.00;99.90
1878;DHT22;939;51.426;6.972;2023-11-21T12:07:48;12.10;99.90
1878;DHT22;939;51.426;6.972;2023-11-21T12:10:18;12.20;99.90
1878;DHT22;939;51.426;6.972;2023-11-21T12:12:51;12.10;99.90
1878;DHT22;939;51.426;6.972;2023-11-21T12:15:19;12.10;99.90
1878;DHT22;939;51.426;6.972;2023-11-21T12:17:49;11.90;99.90
1878;DHT22;939;51.426;6.972;2023-11-21T12:20:19;12.10;99.90
1878;DHT22;939;51.426;6.972;2023-11-21T12:22:48;12.20;99.90
1878;DHT22;939;51.426;6.972;2023-11-21T12:25:17;12.00;99.90
1878;DHT22;939;51.426;6.972;2023-11-21T12:27:45;12.00;99.90
1878;DHT22;939;51.426;6.972;2023-11-21T12:30:13;12.00;99.90
1878;DHT22;939;51.426;6.972;2023-11-21T12:32:42;12.10;99.90
1878;DHT22;939;51.426;6.972;2023-11-21T12:35:09;12.20;99.90
1878;DHT22;939;51.426;6.972;2023-11-21T12:37:37;12.20;99.90
1878;DHT22;939;51.426;6.972;2023-11-21T12:40:06;12.20;99.90
1878;DHT22;939;51.426;6.972;2023-11-21T12:42:35;12.30;99.90
1878;DHT22;939;51.426;6.972;2023-11-21T12:45:09;12.30;99.90
1878;DHT22;939;51.426;6.972;2023-11-21T12:47:41;12.30;99.90
1878;DHT22;939;51.426;6.972;2023-11-21T12:50:11;12.30;99.90
1878;DHT22;939;51.426;6.972;2023-11-21T12:52:41;12.30;99.90
1878;DHT22;939;51.426;6.972;2023-11-21T12:55:14;12.30;99.90
1878;DHT22;939;51.426;6.972;2023-11-21T12:57:44;12.20;99.90
1878;DHT22;939;51.426;6.972;2023-11-21T13:00:12;12.10;99.90
1878;DHT22;939;51.426;6.972;2023-11-21T13:02:51;12.10;99.90
1878;DHT22;939;51.426;6.972;2023-11-21T13:05:24;12.00;99.90
1878;DHT22;939;51.426;6.972;2023-11-21T13:07:52;12.00;99.90
1878;DHT22;939;51.426;6.972;2023-11-21T13:10:21;12.00;99.90
1878;DHT22;939;51.426;6.972;2023-11-21T13:12:52;12.00;99.90
1878;DHT22;939;51.426;6.972;2023-11-21T13:15:20;11.90;99.90
1878;DHT22;939;51.426;6.972;2023-11-21T13:17:47;11.90;99.90
1878;DHT22;939;51.426;6.972;2023-11-21T13:20:17;11.90;99.90
1878;DHT22;939;51.426;6.972;2023-11-21T13:22:49;11.70;99.90
1878;DHT22;939;51.426;6.972;2023-11-21T13:25:19;11.40;99.90
1878;DHT22;939;51.426;6.972;2023-11-21T13:27:46;11.40;99.90
1878;DHT22;939;51.426;6.972;2023-11-21T13:30:15;11.60;99.90
1878;DHT22;939;51.426;6.972;2023-11-21T13:32:43;11.60;99.90
1878;DHT22;939;51.426;6.972;2023-11-21T13:35:11;11.60;99.90
1878;DHT22;939;51.426;6.972;2023-11-21T13:37:47;11.50;99.90
1878;DHT22;939;51.426;6.972;2023-11-21T13:40:19;11.50;99.90
1878;DHT22;939;51.426;6.972;2023-11-21T13:42:49;11.60;99.90
1878;DHT22;939;51.426;6.972;2023-11-21T13:45:21;11.60;99.90
1878;DHT22;939;51.426;6.972;2023-11-21T13:47:49;11.60;99.90
1878;DHT22;939;51.426;6.972;2023-11-21T13:50:17;11.60;99.90
1878;DHT22;939;51.426;6.972;2023-11-21T13:52:49;11.50;99.90
1878;DHT22;939;51.426;6.972;2023-11-21T13:55:17;11.50;99.90
1878;DHT22;939;51.426;6.972;2023-11-21T13:57:44;11.50;99.90
1878;DHT22;939;51.426;6.972;2023-11-21T14:00:15;11.40;99.90
1878;DHT22;939;51.426;6.972;2023-11-21T14:03:08;11.50;99.90
1878;DHT22;939;51.426;6.972;2023-11-21T14:05:43;11.60;99.90
1878;DHT22;939;51.426;6.972;2023-11-21T14:08:11;11.60;99.90
1878;DHT22;939;51.426;6.972;2023-11-21T14:10:42;11.60;99.90
1878;DHT22;939;51.426;6.972;2023-11-21T14:13:09;11.60;99.90
1878;DHT22;939;51.426;6.972;2023-11-21T14:15:39;11.60;99.90
1878;DHT22;939;51.426;6.972;2023-11-21T14:18:12;11.60;99.90
1878;DHT22;939;51.426;6.972;2023-11-21T14:20:42;11.60;99.90
1878;DHT22;939;51.426;6.972;2023-11-21T14:23:10;11.70;99.90
1878;DHT22;939;51.426;6.972;2023-11-21T14:25:37;11.70;99.90
1878;DHT22;939;51.426;6.972;2023-11-21T14:28:07;11.60;99.90
1878;DHT22;939;51.426;6.972;2023-11-21T14:30:37;11.40;99.90
1878;DHT22;939;51.426;6.972;2023-11-21T14:33:05;11.40;99.90
1878;DHT22;939;51.426;6.972;2023-11-21T14:35:35;11.50;99.90
1878;DHT22;939;51.426;6.972;2023-11-21T14:38:02;11.60;99.90
1878;DHT22;939;51.426;6.972;2023-11-21T14:40:30;11.50;99.90
1878;DHT22;939;51.426;6.972;2023-11-21T14:43:00;11.40;99.90
1878;DHT22;939;51.426;6.972;2023-11-21T14:45:30;11.30;99.90
1878;DHT22;939;51.426;6.972;2023-11-21T14:47:58;11.30;99.90
1878;DHT22;939;51.426;6.972;2023-11-21T14:50:32;11.30;99.90
1878;DHT22;939;51.426;6.972;2023-11-21T14:53:16;11.20;99.90
1878;DHT22;939;51.426;6.972;2023-11-21T14:55:54;11.30;99.90
1878;DHT22;939;51.426;6.972;2023-11-21T14:58:24;11.40;99.90
1878;DHT22;939;51.426;6.972;2023-11-21T15:00:55;11.40;99.90
1878;DHT22;939;51.426;6.972;2023-11-21T15:03:25;11.40;99.90
1878;DHT22;939;51.426;6.972;2023-11-21T15:06:09;11.40;99.90
1878;DHT22;939;51.426;6.972;2023-11-21T15:08:52;11.40;99.90
1878;DHT22;939;51.426;6.972;2023-11-21T15:11:22;11.30;99.90
1878;DHT22;939;51.426;6.972;2023-11-21T15:13:56;11.20;99.90
1878;DHT22;939;51.426;6.972;2023-11-21T15:16:24;11.20;99.90
1878;DHT22;939;51.426;6.972;2023-11-21T15:18:51;11.20;99.90
1878;DHT22;939;51.426;6.972;2023-11-21T15:21:18;11.20;99.90
1878;DHT22;939;51.426;6.972;2023-11-21T15:23:47;11.10;99.90
1878;DHT22;939;51.426;6.972;2023-11-21T15:26:15;11.10;99.90
1878;DHT22;939;51.426;6.972;2023-11-21T15:28:42;11.00;99.90
1878;DHT22;939;51.426;6.972;2023-11-21T15:31:10;10.90;99.90
